Picacho, New Mexico
Current Conditions -  °F | °C
As of 2:51 AM on Tuesday 21 Oct 2014 (Local Time) from KROW Reporting Station
Light Rain Light Rain  
Wind Chill: 14°   Ceiling: 3600
Heat Index: 14°   Visibility: 9mi
Dew Point: 13°   Wind: 0mph
Humidity: 93%   Direction: NA
Pressure: 30.11"   Gusts: NA
Location:  33.41°N, 105.01°W
Report Text: KROW 210851Z AUTO 00000KT 9SM -RA FEW026 BKN036 OVC100 14/13 A3011 RMK AO2 RAB36 SLP148 P0000 60000 T01440133 56003
Loading
Personal Weather Stations






























Interactive Weather Map
Tropical Storm Tracking
New forecast layout! Learn more

10-Day Weather Forecast

Advertisements
Track Severe Weather on mobile